sensor_id;sensor_type;location;lat;lon;timestamp;P1;durP1;ratioP1;P2;durP2;ratioP2
58260;SDS011;44058;52.898;6.502;2023-08-07T00:00:49;6.47;;;5.25;;
58260;SDS011;44058;52.898;6.502;2023-08-07T00:03:15;8.55;;;5.43;;
58260;SDS011;44058;52.898;6.502;2023-08-07T00:05:47;5.47;;;4.87;;
58260;SDS011;44058;52.898;6.502;2023-08-07T00:08:13;8.50;;;5.60;;
58260;SDS011;44058;52.898;6.502;2023-08-07T00:10:39;7.10;;;5.35;;
58260;SDS011;44058;52.898;6.502;2023-08-07T00:13:06;7.85;;;5.15;;
58260;SDS011;44058;52.898;6.502;2023-08-07T00:15:32;6.45;;;4.78;;
58260;SDS011;44058;52.898;6.502;2023-08-07T00:18:01;6.32;;;4.90;;
58260;SDS011;44058;52.898;6.502;2023-08-07T00:20:27;5.07;;;4.47;;
58260;SDS011;44058;52.898;6.502;2023-08-07T00:22:53;5.88;;;5.00;;
58260;SDS011;44058;52.898;6.502;2023-08-07T00:25:19;8.00;;;4.90;;
58260;SDS011;44058;52.898;6.502;2023-08-07T00:27:45;5.10;;;4.28;;
58260;SDS011;44058;52.898;6.502;2023-08-07T00:30:11;5.97;;;4.28;;
58260;SDS011;44058;52.898;6.502;2023-08-07T00:32:37;4.35;;;3.95;;
58260;SDS011;44058;52.898;6.502;2023-08-07T00:35:04;6.72;;;3.97;;
58260;SDS011;44058;52.898;6.502;2023-08-07T00:37:30;4.90;;;4.00;;
58260;SDS011;44058;52.898;6.502;2023-08-07T00:39:57;7.45;;;3.65;;
58260;SDS011;44058;52.898;6.502;2023-08-07T00:42:23;7.63;;;3.72;;
58260;SDS011;44058;52.898;6.502;2023-08-07T00:44:49;6.85;;;3.85;;
58260;SDS011;44058;52.898;6.502;2023-08-07T00:47:16;5.90;;;3.70;;
58260;SDS011;44058;52.898;6.502;2023-08-07T00:49:42;5.75;;;4.20;;
58260;SDS011;44058;52.898;6.502;2023-08-07T00:52:08;7.35;;;3.40;;
58260;SDS011;44058;52.898;6.502;2023-08-07T00:54:34;8.38;;;3.90;;
58260;SDS011;44058;52.898;6.502;2023-08-07T00:57:02;5.10;;;3.72;;
58260;SDS011;44058;52.898;6.502;2023-08-07T00:59:30;5.88;;;3.92;;
58260;SDS011;44058;52.898;6.502;2023-08-07T01:01:56;5.10;;;3.90;;
58260;SDS011;44058;52.898;6.502;2023-08-07T01:04:22;5.57;;;3.20;;
58260;SDS011;44058;52.898;6.502;2023-08-07T01:06:48;4.68;;;3.25;;
58260;SDS011;44058;52.898;6.502;2023-08-07T01:09:15;5.72;;;3.60;;
58260;SDS011;44058;52.898;6.502;2023-08-07T01:11:48;6.47;;;3.50;;
58260;SDS011;44058;52.898;6.502;2023-08-07T01:17:14;5.18;;;3.63;;
58260;SDS011;44058;52.898;6.502;2023-08-07T01:19:41;7.07;;;3.40;;
58260;SDS011;44058;52.898;6.502;2023-08-07T01:24:34;8.82;;;3.72;;
58260;SDS011;44058;52.898;6.502;2023-08-07T01:27:02;5.80;;;3.55;;
58260;SDS011;44058;52.898;6.502;2023-08-07T01:29:36;5.10;;;3.30;;
58260;SDS011;44058;52.898;6.502;2023-08-07T01:34:28;5.53;;;2.90;;
58260;SDS011;44058;52.898;6.502;2023-08-07T01:36:54;7.68;;;2.67;;
58260;SDS011;44058;52.898;6.502;2023-08-07T01:39:22;7.47;;;2.50;;
58260;SDS011;44058;52.898;6.502;2023-08-07T01:41:49;8.38;;;3.03;;
58260;SDS011;44058;52.898;6.502;2023-08-07T01:44:16;4.97;;;2.75;;
58260;SDS011;44058;52.898;6.502;2023-08-07T01:46:42;8.93;;;2.42;;
58260;SDS011;44058;52.898;6.502;2023-08-07T01:49:08;7.55;;;2.28;;
58260;SDS011;44058;52.898;6.502;2023-08-07T01:51:34;5.38;;;2.55;;
58260;SDS011;44058;52.898;6.502;2023-08-07T01:54:00;8.52;;;2.50;;
58260;SDS011;44058;52.898;6.502;2023-08-07T01:56:26;7.53;;;2.60;;
58260;SDS011;44058;52.898;6.502;2023-08-07T01:58:52;9.25;;;2.28;;
58260;SDS011;44058;52.898;6.502;2023-08-07T02:01:18;5.35;;;2.45;;
58260;SDS011;44058;52.898;6.502;2023-08-07T02:03:44;7.75;;;2.42;;
58260;SDS011;44058;52.898;6.502;2023-08-07T02:06:11;7.93;;;2.45;;
58260;SDS011;44058;52.898;6.502;2023-08-07T02:08:37;8.75;;;2.53;;
58260;SDS011;44058;52.898;6.502;2023-08-07T02:11:03;5.93;;;2.30;;
58260;SDS011;44058;52.898;6.502;2023-08-07T02:13:29;7.55;;;2.17;;
58260;SDS011;44058;52.898;6.502;2023-08-07T02:15:55;8.32;;;2.08;;
58260;SDS011;44058;52.898;6.502;2023-08-07T02:18:22;7.28;;;2.17;;
58260;SDS011;44058;52.898;6.502;2023-08-07T02:20:48;4.07;;;1.65;;
58260;SDS011;44058;52.898;6.502;2023-08-07T02:23:14;6.40;;;2.05;;
58260;SDS011;44058;52.898;6.502;2023-08-07T02:25:40;3.58;;;1.77;;
58260;SDS011;44058;52.898;6.502;2023-08-07T02:28:06;7.95;;;1.88;;
58260;SDS011;44058;52.898;6.502;2023-08-07T02:30:32;6.40;;;2.30;;
58260;SDS011;44058;52.898;6.502;2023-08-07T02:32:58;6.97;;;1.92;;
58260;SDS011;44058;52.898;6.502;2023-08-07T02:35:24;9.05;;;2.13;;
58260;SDS011;44058;52.898;6.502;2023-08-07T02:37:50;11.20;;;2.35;;
58260;SDS011;44058;52.898;6.502;2023-08-07T02:40:16;8.30;;;1.95;;
58260;SDS011;44058;52.898;6.502;2023-08-07T02:42:44;7.72;;;1.85;;
58260;SDS011;44058;52.898;6.502;2023-08-07T02:45:11;4.97;;;1.80;;
58260;SDS011;44058;52.898;6.502;2023-08-07T02:47:37;6.00;;;1.88;;
58260;SDS011;44058;52.898;6.502;2023-08-07T02:50:03;7.05;;;2.25;;
58260;SDS011;44058;52.898;6.502;2023-08-07T02:52:29;8.65;;;2.13;;
58260;SDS011;44058;52.898;6.502;2023-08-07T02:54:55;8.68;;;2.08;;
58260;SDS011;44058;52.898;6.502;2023-08-07T02:57:21;6.53;;;2.40;;
58260;SDS011;44058;52.898;6.502;2023-08-07T02:59:47;12.38;;;2.30;;
58260;SDS011;44058;52.898;6.502;2023-08-07T03:02:13;10.65;;;2.55;;
58260;SDS011;44058;52.898;6.502;2023-08-07T03:04:40;7.35;;;1.88;;
58260;SDS011;44058;52.898;6.502;2023-08-07T03:07:06;7.30;;;1.80;;
58260;SDS011;44058;52.898;6.502;2023-08-07T03:09:32;9.60;;;2.20;;
58260;SDS011;44058;52.898;6.502;2023-08-07T03:11:58;5.88;;;2.25;;
58260;SDS011;44058;52.898;6.502;2023-08-07T03:14:28;13.50;;;2.20;;
58260;SDS011;44058;52.898;6.502;2023-08-07T03:16:55;9.15;;;2.20;;
58260;SDS011;44058;52.898;6.502;2023-08-07T03:19:21;6.00;;;1.75;;
58260;SDS011;44058;52.898;6.502;2023-08-07T03:21:47;12.27;;;2.40;;
58260;SDS011;44058;52.898;6.502;2023-08-07T03:24:13;9.02;;;2.00;;
58260;SDS011;44058;52.898;6.502;2023-08-07T03:26:39;6.80;;;2.35;;
58260;SDS011;44058;52.898;6.502;2023-08-07T03:29:06;8.90;;;2.33;;
58260;SDS011;44058;52.898;6.502;2023-08-07T03:31:32;7.40;;;2.08;;
58260;SDS011;44058;52.898;6.502;2023-08-07T03:33:58;6.60;;;1.67;;
58260;SDS011;44058;52.898;6.502;2023-08-07T03:36:24;8.20;;;1.95;;
58260;SDS011;44058;52.898;6.502;2023-08-07T03:38:50;9.07;;;2.03;;
58260;SDS011;44058;52.898;6.502;2023-08-07T03:41:16;6.43;;;1.98;;
58260;SDS011;44058;52.898;6.502;2023-08-07T03:43:43;10.43;;;1.98;;
58260;SDS011;44058;52.898;6.502;2023-08-07T03:46:09;8.38;;;1.92;;
58260;SDS011;44058;52.898;6.502;2023-08-07T03:48:35;7.22;;;2.08;;
58260;SDS011;44058;52.898;6.502;2023-08-07T03:51:02;7.80;;;2.22;;
58260;SDS011;44058;52.898;6.502;2023-08-07T03:53:28;7.75;;;2.17;;
58260;SDS011;44058;52.898;6.502;2023-08-07T03:55:54;8.07;;;2.45;;
58260;SDS011;44058;52.898;6.502;2023-08-07T03:58:20;6.43;;;2.30;;
58260;SDS011;44058;52.898;6.502;2023-08-07T04:00:46;5.45;;;2.15;;
58260;SDS011;44058;52.898;6.502;2023-08-07T04:03:12;8.32;;;2.33;;
58260;SDS011;44058;52.898;6.502;2023-08-07T04:05:38;8.88;;;2.83;;
58260;SDS011;44058;52.898;6.502;2023-08-07T04:08:05;6.45;;;2.00;;
58260;SDS011;44058;52.898;6.502;2023-08-07T04:10:31;7.90;;;2.00;;
58260;SDS011;44058;52.898;6.502;2023-08-07T04:12:57;8.25;;;2.28;;
58260;SDS011;44058;52.898;6.502;2023-08-07T04:15:23;8.23;;;2.45;;
58260;SDS011;44058;52.898;6.502;2023-08-07T04:17:49;6.85;;;2.22;;
58260;SDS011;44058;52.898;6.502;2023-08-07T04:20:15;8.50;;;2.20;;
58260;SDS011;44058;52.898;6.502;2023-08-07T04:22:41;6.75;;;2.30;;
58260;SDS011;44058;52.898;6.502;2023-08-07T04:25:07;14.63;;;2.53;;
58260;SDS011;44058;52.898;6.502;2023-08-07T04:27:34;9.73;;;2.28;;
58260;SDS011;44058;52.898;6.502;2023-08-07T04:30:00;8.20;;;1.90;;
58260;SDS011;44058;52.898;6.502;2023-08-07T04:32:26;7.18;;;1.92;;
58260;SDS011;44058;52.898;6.502;2023-08-07T04:34:52;8.07;;;2.55;;
58260;SDS011;44058;52.898;6.502;2023-08-07T04:37:18;4.50;;;2.00;;
58260;SDS011;44058;52.898;6.502;2023-08-07T04:39:44;9.45;;;2.55;;
58260;SDS011;44058;52.898;6.502;2023-08-07T04:42:10;7.43;;;3.08;;
58260;SDS011;44058;52.898;6.502;2023-08-07T04:44:37;9.95;;;2.42;;
58260;SDS011;44058;52.898;6.502;2023-08-07T04:47:03;8.63;;;2.53;;
58260;SDS011;44058;52.898;6.502;2023-08-07T04:49:29;10.60;;;2.85;;
58260;SDS011;44058;52.898;6.502;2023-08-07T04:51:55;6.03;;;2.22;;
58260;SDS011;44058;52.898;6.502;2023-08-07T04:54:21;7.20;;;3.00;;
58260;SDS011;44058;52.898;6.502;2023-08-07T04:56:47;6.88;;;2.40;;
58260;SDS011;44058;52.898;6.502;2023-08-07T04:59:13;8.00;;;2.72;;
58260;SDS011;44058;52.898;6.502;2023-08-07T05:01:40;8.02;;;2.70;;
58260;SDS011;44058;52.898;6.502;2023-08-07T05:04:06;10.52;;;2.85;;
58260;SDS011;44058;52.898;6.502;2023-08-07T05:06:32;11.63;;;3.58;;
58260;SDS011;44058;52.898;6.502;2023-08-07T05:08:58;12.18;;;2.92;;
58260;SDS011;44058;52.898;6.502;2023-08-07T05:11:24;6.80;;;2.50;;
58260;SDS011;44058;52.898;6.502;2023-08-07T05:13:50;7.60;;;2.50;;
58260;SDS011;44058;52.898;6.502;2023-08-07T05:16:16;10.68;;;2.55;;
58260;SDS011;44058;52.898;6.502;2023-08-07T05:18:44;7.75;;;2.60;;
58260;SDS011;44058;52.898;6.502;2023-08-07T05:21:10;6.43;;;2.40;;
58260;SDS011;44058;52.898;6.502;2023-08-07T05:23:36;7.28;;;2.28;;
58260;SDS011;44058;52.898;6.502;2023-08-07T05:26:02;7.30;;;2.40;;
58260;SDS011;44058;52.898;6.502;2023-08-07T05:28:28;8.68;;;2.47;;
58260;SDS011;44058;52.898;6.502;2023-08-07T05:30:54;10.63;;;2.40;;
58260;SDS011;44058;52.898;6.502;2023-08-07T05:33:21;11.57;;;2.58;;
58260;SDS011;44058;52.898;6.502;2023-08-07T05:35:47;8.48;;;2.17;;
58260;SDS011;44058;52.898;6.502;2023-08-07T05:38:13;9.68;;;2.83;;
58260;SDS011;44058;52.898;6.502;2023-08-07T05:40:39;7.40;;;2.70;;
58260;SDS011;44058;52.898;6.502;2023-08-07T05:43:05;6.85;;;2.50;;
58260;SDS011;44058;52.898;6.502;2023-08-07T05:45:32;8.23;;;2.83;;
58260;SDS011;44058;52.898;6.502;2023-08-07T05:47:58;9.50;;;2.60;;
58260;SDS011;44058;52.898;6.502;2023-08-07T05:50:24;9.55;;;2.85;;
58260;SDS011;44058;52.898;6.502;2023-08-07T05:52:50;10.63;;;2.95;;
58260;SDS011;44058;52.898;6.502;2023-08-07T05:55:17;9.00;;;3.22;;
58260;SDS011;44058;52.898;6.502;2023-08-07T05:57:43;9.30;;;2.75;;
58260;SDS011;44058;52.898;6.502;2023-08-07T06:00:09;12.65;;;3.00;;
58260;SDS011;44058;52.898;6.502;2023-08-07T06:02:42;12.80;;;3.40;;
58260;SDS011;44058;52.898;6.502;2023-08-07T06:05:08;9.48;;;3.17;;
58260;SDS011;44058;52.898;6.502;2023-08-07T06:07:34;13.48;;;3.03;;
58260;SDS011;44058;52.898;6.502;2023-08-07T06:10:01;13.52;;;3.08;;
58260;SDS011;44058;52.898;6.502;2023-08-07T06:12:27;17.30;;;4.00;;
58260;SDS011;44058;52.898;6.502;2023-08-07T06:14:56;13.65;;;3.70;;
58260;SDS011;44058;52.898;6.502;2023-08-07T06:17:22;11.75;;;3.47;;
58260;SDS011;44058;52.898;6.502;2023-08-07T06:19:48;15.32;;;4.88;;
58260;SDS011;44058;52.898;6.502;2023-08-07T06:22:14;15.05;;;3.85;;
58260;SDS011;44058;52.898;6.502;2023-08-07T06:24:40;13.77;;;3.67;;
58260;SDS011;44058;52.898;6.502;2023-08-07T06:27:06;11.90;;;3.80;;
58260;SDS011;44058;52.898;6.502;2023-08-07T06:29:33;7.05;;;2.72;;
58260;SDS011;44058;52.898;6.502;2023-08-07T06:31:59;5.78;;;2.05;;
58260;SDS011;44058;52.898;6.502;2023-08-07T06:34:25;5.68;;;1.90;;
58260;SDS011;44058;52.898;6.502;2023-08-07T06:36:51;4.63;;;1.80;;
58260;SDS011;44058;52.898;6.502;2023-08-07T06:39:17;8.60;;;2.08;;
58260;SDS011;44058;52.898;6.502;2023-08-07T06:41:43;10.57;;;1.80;;
58260;SDS011;44058;52.898;6.502;2023-08-07T06:44:09;6.88;;;2.08;;
58260;SDS011;44058;52.898;6.502;2023-08-07T06:46:36;5.22;;;2.10;;
58260;SDS011;44058;52.898;6.502;2023-08-07T06:49:02;7.18;;;2.13;;
58260;SDS011;44058;52.898;6.502;2023-08-07T06:51:28;6.30;;;3.00;;
58260;SDS011;44058;52.898;6.502;2023-08-07T06:53:54;8.50;;;2.78;;
58260;SDS011;44058;52.898;6.502;2023-08-07T06:56:20;6.78;;;2.75;;
58260;SDS011;44058;52.898;6.502;2023-08-07T06:58:47;9.43;;;2.58;;
58260;SDS011;44058;52.898;6.502;2023-08-07T07:01:13;11.52;;;3.08;;
58260;SDS011;44058;52.898;6.502;2023-08-07T07:03:39;12.07;;;2.90;;
58260;SDS011;44058;52.898;6.502;2023-08-07T07:06:05;9.30;;;2.90;;
58260;SDS011;44058;52.898;6.502;2023-08-07T07:08:31;14.25;;;3.95;;
58260;SDS011;44058;52.898;6.502;2023-08-07T07:10:57;7.97;;;2.92;;
58260;SDS011;44058;52.898;6.502;2023-08-07T07:13:24;10.98;;;3.08;;
58260;SDS011;44058;52.898;6.502;2023-08-07T07:15:56;9.63;;;3.08;;
58260;SDS011;44058;52.898;6.502;2023-08-07T07:18:22;8.77;;;3.25;;
58260;SDS011;44058;52.898;6.502;2023-08-07T07:20:51;9.50;;;3.10;;
58260;SDS011;44058;52.898;6.502;2023-08-07T07:23:17;9.38;;;3.00;;
58260;SDS011;44058;52.898;6.502;2023-08-07T07:25:43;12.90;;;2.83;;
58260;SDS011;44058;52.898;6.502;2023-08-07T07:28:09;4.90;;;2.17;;
58260;SDS011;44058;52.898;6.502;2023-08-07T07:30:35;10.82;;;2.50;;
58260;SDS011;44058;52.898;6.502;2023-08-07T07:33:01;8.00;;;2.35;;
58260;SDS011;44058;52.898;6.502;2023-08-07T07:35:27;5.60;;;2.35;;
58260;SDS011;44058;52.898;6.502;2023-08-07T07:37:53;6.13;;;2.33;;
58260;SDS011;44058;52.898;6.502;2023-08-07T07:40:19;6.07;;;1.80;;
58260;SDS011;44058;52.898;6.502;2023-08-07T07:42:45;4.82;;;1.85;;
58260;SDS011;44058;52.898;6.502;2023-08-07T07:45:11;6.60;;;2.17;;
58260;SDS011;44058;52.898;6.502;2023-08-07T07:47:38;4.38;;;1.83;;
58260;SDS011;44058;52.898;6.502;2023-08-07T07:50:06;5.20;;;2.33;;
58260;SDS011;44058;52.898;6.502;2023-08-07T07:52:32;5.05;;;1.90;;
58260;SDS011;44058;52.898;6.502;2023-08-07T07:54:58;4.90;;;1.55;;
58260;SDS011;44058;52.898;6.502;2023-08-07T07:57:24;3.47;;;1.45;;
58260;SDS011;44058;52.898;6.502;2023-08-07T07:59:51;4.60;;;1.33;;
58260;SDS011;44058;52.898;6.502;2023-08-07T08:02:17;3.90;;;1.35;;
58260;SDS011;44058;52.898;6.502;2023-08-07T08:04:43;3.00;;;1.25;;
58260;SDS011;44058;52.898;6.502;2023-08-07T08:07:09;4.50;;;1.80;;
58260;SDS011;44058;52.898;6.502;2023-08-07T08:09:35;3.83;;;1.55;;
58260;SDS011;44058;52.898;6.502;2023-08-07T08:12:01;5.03;;;1.60;;
58260;SDS011;44058;52.898;6.502;2023-08-07T08:14:28;5.60;;;2.22;;
58260;SDS011;44058;52.898;6.502;2023-08-07T08:16:54;6.03;;;2.03;;
58260;SDS011;44058;52.898;6.502;2023-08-07T08:19:20;4.93;;;2.25;;
58260;SDS011;44058;52.898;6.502;2023-08-07T08:21:46;7.00;;;2.20;;
58260;SDS011;44058;52.898;6.502;2023-08-07T08:24:12;9.50;;;2.78;;
58260;SDS011;44058;52.898;6.502;2023-08-07T08:26:39;6.53;;;2.38;;
58260;SDS011;44058;52.898;6.502;2023-08-07T08:29:05;10.85;;;2.72;;
58260;SDS011;44058;52.898;6.502;2023-08-07T08:31:33;5.77;;;2.50;;
58260;SDS011;44058;52.898;6.502;2023-08-07T08:33:59;8.43;;;2.75;;
58260;SDS011;44058;52.898;6.502;2023-08-07T08:36:25;8.02;;;2.55;;
58260;SDS011;44058;52.898;6.502;2023-08-07T08:38:51;7.35;;;2.53;;
58260;SDS011;44058;52.898;6.502;2023-08-07T08:41:18;8.95;;;2.53;;
58260;SDS011;44058;52.898;6.502;2023-08-07T08:43:45;7.72;;;3.22;;
58260;SDS011;44058;52.898;6.502;2023-08-07T08:46:15;6.68;;;2.80;;
58260;SDS011;44058;52.898;6.502;2023-08-07T08:48:42;8.18;;;2.95;;
58260;SDS011;44058;52.898;6.502;2023-08-07T08:51:11;5.43;;;3.00;;
58260;SDS011;44058;52.898;6.502;2023-08-07T08:53:38;9.18;;;2.55;;
58260;SDS011;44058;52.898;6.502;2023-08-07T08:56:04;11.10;;;3.08;;
58260;SDS011;44058;52.898;6.502;2023-08-07T08:58:32;10.02;;;3.25;;
58260;SDS011;44058;52.898;6.502;2023-08-07T09:00:58;10.52;;;2.90;;
58260;SDS011;44058;52.898;6.502;2023-08-07T09:03:24;6.00;;;2.42;;
58260;SDS011;44058;52.898;6.502;2023-08-07T09:05:52;8.07;;;2.67;;
58260;SDS011;44058;52.898;6.502;2023-08-07T09:08:19;7.30;;;2.45;;
58260;SDS011;44058;52.898;6.502;2023-08-07T09:10:46;7.50;;;2.70;;
58260;SDS011;44058;52.898;6.502;2023-08-07T09:13:14;8.13;;;2.58;;
58260;SDS011;44058;52.898;6.502;2023-08-07T09:15:40;7.05;;;2.80;;
58260;SDS011;44058;52.898;6.502;2023-08-07T09:18:08;8.27;;;2.90;;
58260;SDS011;44058;52.898;6.502;2023-08-07T09:20:36;8.75;;;2.97;;
58260;SDS011;44058;52.898;6.502;2023-08-07T09:23:06;8.98;;;2.42;;
58260;SDS011;44058;52.898;6.502;2023-08-07T09:25:33;8.18;;;2.22;;
58260;SDS011;44058;52.898;6.502;2023-08-07T09:28:03;10.55;;;2.15;;
58260;SDS011;44058;52.898;6.502;2023-08-07T09:30:30;5.63;;;2.45;;
58260;SDS011;44058;52.898;6.502;2023-08-07T09:32:56;6.82;;;2.35;;
58260;SDS011;44058;52.898;6.502;2023-08-07T09:35:23;7.72;;;2.22;;
58260;SDS011;44058;52.898;6.502;2023-08-07T09:37:49;7.47;;;2.13;;
58260;SDS011;44058;52.898;6.502;2023-08-07T09:40:15;6.22;;;2.25;;
58260;SDS011;44058;52.898;6.502;2023-08-07T09:42:41;7.85;;;2.17;;
58260;SDS011;44058;52.898;6.502;2023-08-07T09:45:29;7.50;;;2.03;;
58260;SDS011;44058;52.898;6.502;2023-08-07T09:47:57;6.03;;;2.15;;
58260;SDS011;44058;52.898;6.502;2023-08-07T09:50:24;4.53;;;2.00;;
58260;SDS011;44058;52.898;6.502;2023-08-07T09:52:50;6.30;;;1.70;;
58260;SDS011;44058;52.898;6.502;2023-08-07T09:55:16;8.02;;;2.47;;
58260;SDS011;44058;52.898;6.502;2023-08-07T09:57:45;5.75;;;1.85;;
58260;SDS011;44058;52.898;6.502;2023-08-07T10:00:12;5.93;;;2.05;;
58260;SDS011;44058;52.898;6.502;2023-08-07T10:02:41;7.18;;;2.63;;
58260;SDS011;44058;52.898;6.502;2023-08-07T10:05:09;5.85;;;2.38;;
58260;SDS011;44058;52.898;6.502;2023-08-07T10:07:37;4.90;;;1.83;;
58260;SDS011;44058;52.898;6.502;2023-08-07T10:10:04;5.72;;;2.20;;
58260;SDS011;44058;52.898;6.502;2023-08-07T10:12:30;7.90;;;2.08;;
58260;SDS011;44058;52.898;6.502;2023-08-07T10:14:57;3.47;;;2.00;;
58260;SDS011;44058;52.898;6.502;2023-08-07T10:17:23;7.43;;;2.35;;
58260;SDS011;44058;52.898;6.502;2023-08-07T10:19:50;5.00;;;2.17;;
58260;SDS011;44058;52.898;6.502;2023-08-07T10:22:18;11.55;;;2.67;;
58260;SDS011;44058;52.898;6.502;2023-08-07T10:24:47;4.55;;;1.98;;
58260;SDS011;44058;52.898;6.502;2023-08-07T10:29:39;7.90;;;2.30;;
58260;SDS011;44058;52.898;6.502;2023-08-07T10:32:06;5.53;;;1.95;;
58260;SDS011;44058;52.898;6.502;2023-08-07T10:34:33;7.80;;;2.42;;
58260;SDS011;44058;52.898;6.502;2023-08-07T10:36:59;4.70;;;2.30;;
58260;SDS011;44058;52.898;6.502;2023-08-07T10:39:25;11.80;;;2.15;;
58260;SDS011;44058;52.898;6.502;2023-08-07T10:41:55;7.97;;;2.10;;
58260;SDS011;44058;52.898;6.502;2023-08-07T10:44:21;9.20;;;2.25;;
58260;SDS011;44058;52.898;6.502;2023-08-07T10:46:56;8.85;;;2.40;;
58260;SDS011;44058;52.898;6.502;2023-08-07T10:49:38;7.00;;;2.55;;
58260;SDS011;44058;52.898;6.502;2023-08-07T10:52:08;5.60;;;2.28;;
58260;SDS011;44058;52.898;6.502;2023-08-07T10:54:40;6.22;;;2.15;;
58260;SDS011;44058;52.898;6.502;2023-08-07T10:57:11;5.97;;;1.98;;
58260;SDS011;44058;52.898;6.502;2023-08-07T10:59:38;5.88;;;2.25;;
58260;SDS011;44058;52.898;6.502;2023-08-07T11:02:11;5.22;;;2.05;;
58260;SDS011;44058;52.898;6.502;2023-08-07T11:04:38;8.10;;;2.45;;
58260;SDS011;44058;52.898;6.502;2023-08-07T11:07:04;7.18;;;2.30;;
58260;SDS011;44058;52.898;6.502;2023-08-07T11:09:31;8.48;;;2.42;;
58260;SDS011;44058;52.898;6.502;2023-08-07T11:11:59;7.90;;;2.00;;
58260;SDS011;44058;52.898;6.502;2023-08-07T11:14:25;6.68;;;2.10;;
58260;SDS011;44058;52.898;6.502;2023-08-07T11:16:52;5.45;;;1.95;;
58260;SDS011;44058;52.898;6.502;2023-08-07T11:19:18;5.95;;;1.88;;
58260;SDS011;44058;52.898;6.502;2023-08-07T11:21:44;4.35;;;1.55;;
58260;SDS011;44058;52.898;6.502;2023-08-07T11:24:14;6.20;;;1.70;;
58260;SDS011;44058;52.898;6.502;2023-08-07T11:26:44;5.60;;;1.90;;
58260;SDS011;44058;52.898;6.502;2023-08-07T11:29:10;3.58;;;1.58;;
58260;SDS011;44058;52.898;6.502;2023-08-07T11:31:36;4.03;;;1.50;;
58260;SDS011;44058;52.898;6.502;2023-08-07T11:34:02;6.35;;;1.77;;
58260;SDS011;44058;52.898;6.502;2023-08-07T11:36:28;6.07;;;1.50;;
58260;SDS011;44058;52.898;6.502;2023-08-07T11:38:55;3.40;;;1.38;;
58260;SDS011;44058;52.898;6.502;2023-08-07T11:41:21;5.40;;;1.65;;
58260;SDS011;44058;52.898;6.502;2023-08-07T11:43:47;4.25;;;1.83;;
58260;SDS011;44058;52.898;6.502;2023-08-07T11:46:14;6.78;;;2.00;;
58260;SDS011;44058;52.898;6.502;2023-08-07T11:48:41;7.20;;;1.77;;
58260;SDS011;44058;52.898;6.502;2023-08-07T11:51:08;4.50;;;1.70;;
58260;SDS011;44058;52.898;6.502;2023-08-07T11:53:35;3.40;;;1.80;;
58260;SDS011;44058;52.898;6.502;2023-08-07T11:56:08;4.93;;;1.48;;
58260;SDS011;44058;52.898;6.502;2023-08-07T11:58:35;5.68;;;1.80;;
58260;SDS011;44058;52.898;6.502;2023-08-07T12:01:05;8.15;;;1.98;;
58260;SDS011;44058;52.898;6.502;2023-08-07T12:05:59;5.35;;;1.98;;
58260;SDS011;44058;52.898;6.502;2023-08-07T12:10:53;6.63;;;1.70;;
58260;SDS011;44058;52.898;6.502;2023-08-07T12:13:23;7.78;;;2.10;;
58260;SDS011;44058;52.898;6.502;2023-08-07T12:15:51;7.70;;;2.15;;
58260;SDS011;44058;52.898;6.502;2023-08-07T12:18:18;8.00;;;1.98;;
58260;SDS011;44058;52.898;6.502;2023-08-07T12:20:44;7.95;;;2.00;;
58260;SDS011;44058;52.898;6.502;2023-08-07T12:23:13;10.20;;;2.17;;
58260;SDS011;44058;52.898;6.502;2023-08-07T12:25:41;3.80;;;1.70;;
58260;SDS011;44058;52.898;6.502;2023-08-07T12:28:07;3.70;;;1.50;;
58260;SDS011;44058;52.898;6.502;2023-08-07T12:30:34;5.63;;;2.00;;
58260;SDS011;44058;52.898;6.502;2023-08-07T12:33:00;5.68;;;1.70;;
58260;SDS011;44058;52.898;6.502;2023-08-07T12:35:29;6.20;;;1.90;;
58260;SDS011;44058;52.898;6.502;2023-08-07T12:37:55;9.32;;;2.60;;
58260;SDS011;44058;52.898;6.502;2023-08-07T12:40:21;4.53;;;2.28;;
58260;SDS011;44058;52.898;6.502;2023-08-07T12:42:48;5.40;;;1.75;;
58260;SDS011;44058;52.898;6.502;2023-08-07T12:45:15;3.53;;;1.80;;
58260;SDS011;44058;52.898;6.502;2023-08-07T12:47:44;9.00;;;2.10;;
58260;SDS011;44058;52.898;6.502;2023-08-07T12:50:10;6.13;;;1.67;;
58260;SDS011;44058;52.898;6.502;2023-08-07T12:52:36;2.92;;;1.60;;
58260;SDS011;44058;52.898;6.502;2023-08-07T12:55:03;4.53;;;1.63;;
58260;SDS011;44058;52.898;6.502;2023-08-07T12:57:30;3.55;;;1.50;;
58260;SDS011;44058;52.898;6.502;2023-08-07T12:59:57;4.55;;;1.50;;
58260;SDS011;44058;52.898;6.502;2023-08-07T13:02:23;2.92;;;1.50;;
58260;SDS011;44058;52.898;6.502;2023-08-07T13:04:49;5.78;;;1.70;;
58260;SDS011;44058;52.898;6.502;2023-08-07T13:07:16;1.92;;;1.23;;
58260;SDS011;44058;52.898;6.502;2023-08-07T13:09:43;4.47;;;1.80;;
58260;SDS011;44058;52.898;6.502;2023-08-07T13:12:09;5.60;;;2.00;;
58260;SDS011;44058;52.898;6.502;2023-08-07T13:14:35;2.75;;;1.50;;
58260;SDS011;44058;52.898;6.502;2023-08-07T13:17:01;4.78;;;1.67;;
58260;SDS011;44058;52.898;6.502;2023-08-07T13:19:27;5.00;;;1.60;;
58260;SDS011;44058;52.898;6.502;2023-08-07T13:21:53;2.88;;;1.40;;
58260;SDS011;44058;52.898;6.502;2023-08-07T13:24:19;4.43;;;1.83;;
58260;SDS011;44058;52.898;6.502;2023-08-07T13:26:45;3.72;;;1.85;;
58260;SDS011;44058;52.898;6.502;2023-08-07T13:29:12;4.88;;;1.70;;
58260;SDS011;44058;52.898;6.502;2023-08-07T13:31:38;4.57;;;2.05;;
58260;SDS011;44058;52.898;6.502;2023-08-07T13:34:06;3.22;;;1.75;;
58260;SDS011;44058;52.898;6.502;2023-08-07T13:36:36;5.90;;;2.40;;
58260;SDS011;44058;52.898;6.502;2023-08-07T13:39:06;4.45;;;2.50;;
58260;SDS011;44058;52.898;6.502;2023-08-07T13:41:34;4.07;;;2.10;;
58260;SDS011;44058;52.898;6.502;2023-08-07T13:44:00;4.97;;;2.13;;
58260;SDS011;44058;52.898;6.502;2023-08-07T13:46:26;4.72;;;2.15;;
58260;SDS011;44058;52.898;6.502;2023-08-07T13:48:52;4.32;;;2.33;;
58260;SDS011;44058;52.898;6.502;2023-08-07T13:51:18;7.65;;;2.20;;
58260;SDS011;44058;52.898;6.502;2023-08-07T13:53:45;8.57;;;2.75;;
58260;SDS011;44058;52.898;6.502;2023-08-07T13:56:11;6.63;;;2.40;;
58260;SDS011;44058;52.898;6.502;2023-08-07T13:58:38;6.65;;;2.60;;
58260;SDS011;44058;52.898;6.502;2023-08-07T14:01:04;5.35;;;2.50;;
58260;SDS011;44058;52.898;6.502;2023-08-07T14:03:31;5.53;;;2.58;;
58260;SDS011;44058;52.898;6.502;2023-08-07T14:05:57;6.40;;;2.65;;
58260;SDS011;44058;52.898;6.502;2023-08-07T14:08:24;4.97;;;2.47;;
58260;SDS011;44058;52.898;6.502;2023-08-07T14:10:50;6.75;;;2.47;;
58260;SDS011;44058;52.898;6.502;2023-08-07T14:13:16;5.13;;;2.20;;
58260;SDS011;44058;52.898;6.502;2023-08-07T14:15:42;5.85;;;2.45;;
58260;SDS011;44058;52.898;6.502;2023-08-07T14:18:10;7.60;;;2.75;;
58260;SDS011;44058;52.898;6.502;2023-08-07T14:20:38;4.13;;;2.40;;
58260;SDS011;44058;52.898;6.502;2023-08-07T14:23:04;4.65;;;1.98;;
58260;SDS011;44058;52.898;6.502;2023-08-07T14:25:30;4.55;;;2.00;;
58260;SDS011;44058;52.898;6.502;2023-08-07T14:27:56;5.80;;;2.15;;
58260;SDS011;44058;52.898;6.502;2023-08-07T14:30:22;6.07;;;2.40;;
58260;SDS011;44058;52.898;6.502;2023-08-07T14:32:49;4.47;;;2.03;;
58260;SDS011;44058;52.898;6.502;2023-08-07T14:35:15;5.15;;;1.77;;
58260;SDS011;44058;52.898;6.502;2023-08-07T14:37:41;7.45;;;2.10;;
58260;SDS011;44058;52.898;6.502;2023-08-07T14:40:08;6.32;;;2.20;;
58260;SDS011;44058;52.898;6.502;2023-08-07T14:42:34;4.30;;;1.52;;
58260;SDS011;44058;52.898;6.502;2023-08-07T14:45:00;4.22;;;2.15;;
58260;SDS011;44058;52.898;6.502;2023-08-07T14:47:26;4.53;;;1.88;;
58260;SDS011;44058;52.898;6.502;2023-08-07T14:49:52;5.32;;;1.90;;
58260;SDS011;44058;52.898;6.502;2023-08-07T14:52:18;4.47;;;1.90;;
58260;SDS011;44058;52.898;6.502;2023-08-07T14:54:44;7.22;;;1.85;;
58260;SDS011;44058;52.898;6.502;2023-08-07T14:57:11;6.35;;;2.13;;